createdAt,value
2022-07-27T00:00:46.405Z,17.09
2022-07-27T00:03:13.037Z,17.32
2022-07-27T00:05:39.810Z,16.93
2022-07-27T00:08:06.878Z,16.81
2022-07-27T00:10:34.603Z,17.20
2022-07-27T00:13:01.160Z,16.52
2022-07-27T00:15:28.105Z,16.87
2022-07-27T00:17:55.475Z,17.07
2022-07-27T00:20:27.033Z,17.36
2022-07-27T00:22:55.045Z,17.81
2022-07-27T00:25:22.983Z,17.78
2022-07-27T00:27:49.614Z,17.91
2022-07-27T00:30:17.585Z,17.77
2022-07-27T00:32:44.169Z,17.86
2022-07-27T00:35:11.122Z,17.40
2022-07-27T00:37:37.948Z,16.91
2022-07-27T00:40:05.569Z,17.02
2022-07-27T00:42:32.251Z,17.59
2022-07-27T00:44:58.854Z,17.64
2022-07-27T00:47:26.249Z,17.34
2022-07-27T00:49:52.993Z,17.16
2022-07-27T00:52:21.788Z,17.27
2022-07-27T00:54:48.297Z,17.29
2022-07-27T00:57:15.380Z,17.51
2022-07-27T00:59:41.962Z,17.64
2022-07-27T01:02:11.329Z,17.74
2022-07-27T01:04:39.558Z,17.34
2022-07-27T01:07:07.191Z,17.54
2022-07-27T01:09:52.794Z,17.40
2022-07-27T01:12:23.505Z,17.65
2022-07-27T01:14:51.201Z,17.31
2022-07-27T01:17:18.351Z,17.21
2022-07-27T01:19:45.364Z,17.42
2022-07-27T01:22:12.312Z,17.32
2022-07-27T01:24:39.297Z,17.33
2022-07-27T01:27:06.456Z,17.40
2022-07-27T01:29:33.729Z,17.39
2022-07-27T01:32:01.512Z,17.44
2022-07-27T01:34:28.029Z,17.32
2022-07-27T01:36:54.786Z,17.34
2022-07-27T01:39:21.312Z,17.21
2022-07-27T01:41:47.874Z,17.06
2022-07-27T01:44:14.983Z,17.62
2022-07-27T01:46:41.762Z,17.72
2022-07-27T01:49:08.523Z,17.68
2022-07-27T01:51:35.378Z,17.60
2022-07-27T01:54:01.892Z,17.41
2022-07-27T01:56:28.410Z,17.25
2022-07-27T01:58:55.365Z,17.03
2022-07-27T02:01:22.136Z,17.38
2022-07-27T02:03:48.696Z,17.15
2022-07-27T02:06:15.254Z,16.82
2022-07-27T02:08:41.721Z,16.69
2022-07-27T02:11:26.913Z,17.20
2022-07-27T02:13:53.443Z,17.13
2022-07-27T02:16:20.478Z,16.66
2022-07-27T02:18:48.639Z,16.62
2022-07-27T02:21:15.702Z,16.50
2022-07-27T02:23:44.547Z,16.43
2022-07-27T02:26:11.074Z,16.69
2022-07-27T02:28:37.655Z,16.72
2022-07-27T02:31:04.343Z,16.62
2022-07-27T02:33:30.859Z,16.78
2022-07-27T02:35:57.429Z,16.62
2022-07-27T02:38:23.962Z,16.49
2022-07-27T02:40:50.444Z,16.42
2022-07-27T02:43:16.969Z,16.65
2022-07-27T02:45:43.510Z,16.36
2022-07-27T02:48:13.149Z,16.47
2022-07-27T02:50:39.662Z,16.24
2022-07-27T02:53:06.147Z,16.37
2022-07-27T02:55:32.632Z,16.06
2022-07-27T02:57:59.149Z,16.43
2022-07-27T03:00:25.699Z,16.61
2022-07-27T03:02:52.238Z,16.77
2022-07-27T03:05:19.219Z,16.36
2022-07-27T03:07:46.257Z,16.38
2022-07-27T03:10:13.360Z,16.33
2022-07-27T03:12:40.490Z,16.40
2022-07-27T03:15:07.520Z,16.11
2022-07-27T03:17:34.100Z,16.00
2022-07-27T03:20:00.605Z,16.29
2022-07-27T03:22:30.867Z,15.95
2022-07-27T03:24:57.553Z,15.92
2022-07-27T03:27:24.047Z,16.26
2022-07-27T03:29:50.937Z,16.08
2022-07-27T03:32:17.450Z,16.66
2022-07-27T03:34:44.566Z,17.04
2022-07-27T03:37:13.799Z,16.60
2022-07-27T03:39:45.740Z,16.91
2022-07-27T03:42:13.420Z,16.66
2022-07-27T03:44:40.790Z,16.70
2022-07-27T03:47:09.016Z,16.41
2022-07-27T03:49:38.488Z,16.76
2022-07-27T03:52:06.770Z,16.70
2022-07-27T03:54:34.860Z,16.15
2022-07-27T03:57:02.873Z,15.89
2022-07-27T03:59:30.152Z,16.38
2022-07-27T04:01:57.257Z,17.07
2022-07-27T04:04:27.187Z,16.95
2022-07-27T04:06:55.797Z,16.22
2022-07-27T04:09:23.189Z,16.49
2022-07-27T04:11:52.452Z,16.66
2022-07-27T04:14:22.684Z,16.47
2022-07-27T04:16:51.735Z,16.13
2022-07-27T04:19:21.597Z,16.72
2022-07-27T04:21:50.483Z,16.95
2022-07-27T04:24:17.634Z,16.92
2022-07-27T04:26:46.095Z,16.76
2022-07-27T04:29:19.985Z,16.97
2022-07-27T04:31:47.773Z,16.85
2022-07-27T04:34:15.002Z,17.17
2022-07-27T04:36:42.364Z,16.47
2022-07-27T04:39:09.917Z,16.64
2022-07-27T04:41:37.524Z,16.57
2022-07-27T04:44:06.153Z,16.81
2022-07-27T04:46:35.891Z,16.49
2022-07-27T04:49:07.293Z,16.82
2022-07-27T04:51:38.435Z,16.46
2022-07-27T04:54:05.815Z,16.34
2022-07-27T04:56:34.763Z,16.71
2022-07-27T04:59:07.932Z,17.62
2022-07-27T05:01:35.598Z,17.26
2022-07-27T05:04:04.507Z,17.11
2022-07-27T05:06:33.304Z,17.16
2022-07-27T05:09:00.437Z,17.17
2022-07-27T05:11:27.404Z,17.45
2022-07-27T05:13:56.702Z,17.35
2022-07-27T05:16:28.444Z,17.75
2022-07-27T05:19:02.067Z,16.81
2022-07-27T05:21:31.597Z,17.45
2022-07-27T05:23:59.597Z,17.14
2022-07-27T05:26:30.012Z,17.05
2022-07-27T05:28:57.489Z,16.86
2022-07-27T05:31:25.490Z,17.03
2022-07-27T05:33:57.910Z,17.18
2022-07-27T05:36:25.653Z,17.21
2022-07-27T05:38:53.003Z,17.87
2022-07-27T05:41:25.941Z,17.56
2022-07-27T05:43:54.673Z,17.42
2022-07-27T05:46:23.036Z,17.98
2022-07-27T05:48:51.574Z,17.44
2022-07-27T05:51:18.647Z,16.98
2022-07-27T05:53:45.748Z,16.83
2022-07-27T05:56:12.925Z,16.61
2022-07-27T05:58:39.912Z,16.59
2022-07-27T06:01:06.744Z,17.26
2022-07-27T06:03:34.018Z,16.03
2022-07-27T06:06:19.670Z,17.18
2022-07-27T06:08:47.039Z,17.03
2022-07-27T06:11:14.712Z,17.84
2022-07-27T06:13:44.161Z,17.15
2022-07-27T06:16:10.783Z,17.62
2022-07-27T06:18:38.058Z,17.38
2022-07-27T06:21:05.666Z,17.98
2022-07-27T06:23:33.231Z,17.57
2022-07-27T06:26:01.164Z,18.19
2022-07-27T06:28:31.105Z,18.02
2022-07-27T06:30:58.195Z,18.40
2022-07-27T06:33:29.442Z,18.37
2022-07-27T06:35:59.458Z,18.25
2022-07-27T06:38:28.924Z,18.08
2022-07-27T06:40:58.063Z,18.09
2022-07-27T06:43:29.062Z,18.57
2022-07-27T06:45:56.461Z,17.77
2022-07-27T06:48:28.829Z,18.25
2022-07-27T06:50:56.231Z,18.26
2022-07-27T06:53:24.683Z,17.66
2022-07-27T06:55:51.958Z,17.51
2022-07-27T06:58:19.494Z,17.87
2022-07-27T07:00:47.789Z,18.69
2022-07-27T07:03:14.863Z,18.21
2022-07-27T07:05:44.245Z,18.28
2022-07-27T07:08:14.976Z,18.66
2022-07-27T07:10:48.546Z,18.06
2022-07-27T07:13:16.056Z,18.09
2022-07-27T07:15:44.117Z,18.74
2022-07-27T07:18:12.415Z,19.43
2022-07-27T07:20:40.541Z,18.52
2022-07-27T07:23:09.762Z,18.50
2022-07-27T07:25:37.609Z,19.49
2022-07-27T07:28:06.513Z,19.32
2022-07-27T07:30:34.041Z,20.02
2022-07-27T07:33:02.185Z,18.59
2022-07-27T07:35:29.328Z,19.15
2022-07-27T07:37:56.218Z,17.96
2022-07-27T07:43:12.989Z,18.34
2022-07-27T07:45:50.055Z,17.71
2022-07-27T07:48:22.050Z,18.56
2022-07-27T07:50:58.699Z,17.76
2022-07-27T07:53:27.318Z,18.14
2022-07-27T07:55:57.049Z,17.99
2022-07-27T07:58:24.648Z,17.23
2022-07-27T08:00:52.985Z,18.37
2022-07-27T08:03:21.201Z,18.37
2022-07-27T08:05:49.133Z,18.87
2022-07-27T08:08:39.559Z,18.78
2022-07-27T08:11:07.143Z,19.11
2022-07-27T08:13:34.226Z,19.13
2022-07-27T08:16:01.715Z,20.17
2022-07-27T08:18:28.784Z,18.83
2022-07-27T08:20:55.877Z,18.94
2022-07-27T08:23:23.413Z,19.29
2022-07-27T08:25:50.522Z,19.42
2022-07-27T08:28:17.547Z,19.62
2022-07-27T08:30:45.462Z,19.25
2022-07-27T08:33:13.157Z,20.48
2022-07-27T08:35:42.647Z,19.94
2022-07-27T08:38:14.966Z,21.37
2022-07-27T08:40:44.997Z,19.60
2022-07-27T08:43:21.876Z,19.19
2022-07-27T08:45:58.299Z,18.41
2022-07-27T08:48:29.004Z,17.30
2022-07-27T08:51:00.288Z,17.13
2022-07-27T08:53:52.343Z,17.29
2022-07-27T08:56:15.121Z,17.73
2022-07-27T08:58:42.935Z,18.02
2022-07-27T09:01:11.016Z,18.06
2022-07-27T09:03:38.380Z,18.12
2022-07-27T09:06:05.838Z,18.40
2022-07-27T09:08:34.249Z,18.70
2022-07-27T09:11:03.916Z,19.22
2022-07-27T09:13:39.670Z,19.93
2022-07-27T09:16:20.453Z,20.30
2022-07-27T09:18:49.499Z,19.32
2022-07-27T09:21:21.980Z,19.75
2022-07-27T09:23:52.858Z,18.28
2022-07-27T09:26:32.462Z,18.78
2022-07-27T09:29:08.245Z,19.54
2022-07-27T09:31:45.968Z,21.11
2022-07-27T09:34:14.674Z,21.78
2022-07-27T09:36:53.829Z,20.53
2022-07-27T09:39:22.379Z,20.33
2022-07-27T09:42:00.372Z,20.45
2022-07-27T09:44:44.869Z,20.88
2022-07-27T09:47:27.904Z,20.16
2022-07-27T09:49:58.936Z,20.16
2022-07-27T09:52:28.858Z,19.70
2022-07-27T09:55:03.116Z,19.89
2022-07-27T09:57:30.206Z,20.34
2022-07-27T10:00:11.755Z,19.76
2022-07-27T10:02:39.712Z,20.03
2022-07-27T10:05:08.948Z,20.22
2022-07-27T10:07:36.356Z,20.01
2022-07-27T10:10:04.117Z,20.41
2022-07-27T10:12:31.726Z,20.77
2022-07-27T10:14:58.595Z,21.27
2022-07-27T10:17:32.233Z,20.61
2022-07-27T10:20:02.197Z,21.75
2022-07-27T10:22:53.968Z,23.14
2022-07-27T10:25:22.746Z,23.37
2022-07-27T10:28:13.805Z,22.72
2022-07-27T10:30:41.246Z,23.44
2022-07-27T10:33:35.617Z,23.63
2022-07-27T10:36:04.819Z,21.10
2022-07-27T10:38:53.037Z,20.59
2022-07-27T10:41:40.634Z,19.97
2022-07-27T10:44:22.578Z,19.30
2022-07-27T10:46:55.619Z,20.25
2022-07-27T10:49:24.194Z,20.99
2022-07-27T10:51:53.529Z,20.63
2022-07-27T10:54:22.980Z,20.36
2022-07-27T10:56:55.105Z,20.29
2022-07-27T11:00:07.331Z,20.84
2022-07-27T11:02:41.168Z,19.85
2022-07-27T11:05:53.875Z,19.40
2022-07-27T11:08:35.972Z,20.00
2022-07-27T11:10:48.423Z,21.17
2022-07-27T11:13:18.282Z,19.16
2022-07-27T11:16:27.994Z,19.03
2022-07-27T11:18:58.324Z,19.64
2022-07-27T11:21:27.918Z,19.57
2022-07-27T11:24:01.584Z,19.04
2022-07-27T11:26:30.624Z,19.67
2022-07-27T11:28:58.109Z,21.25
2022-07-27T11:31:52.805Z,20.84
2022-07-27T11:34:19.590Z,20.87
2022-07-27T11:36:51.662Z,19.68
2022-07-27T11:42:21.271Z,19.69
2022-07-27T11:44:51.025Z,19.52
2022-07-27T11:47:19.732Z,20.16
2022-07-27T11:49:47.948Z,19.32
2022-07-27T11:52:18.073Z,20.36
2022-07-27T11:54:51.809Z,20.31
2022-07-27T11:57:23.908Z,20.78
2022-07-27T11:59:52.815Z,21.98
2022-07-27T12:02:22.305Z,22.09
2022-07-27T12:04:51.918Z,19.72
2022-07-27T12:07:20.238Z,20.00
2022-07-27T12:09:53.916Z,19.86
2022-07-27T12:12:32.142Z,20.51
2022-07-27T12:15:44.729Z,20.01
2022-07-27T12:18:10.625Z,20.39
2022-07-27T12:20:40.061Z,20.08
2022-07-27T12:23:08.637Z,21.06
2022-07-27T12:25:36.830Z,22.29
2022-07-27T12:28:07.877Z,22.11
2022-07-27T12:30:46.830Z,21.08
2022-07-27T12:33:31.890Z,21.69
2022-07-27T12:36:00.414Z,21.03
2022-07-27T12:38:40.227Z,21.93
2022-07-27T12:41:07.863Z,20.83
2022-07-27T12:43:35.389Z,20.02
2022-07-27T12:46:13.877Z,20.33
2022-07-27T12:48:43.151Z,20.28
2022-07-27T12:51:11.990Z,20.13
2022-07-27T12:53:39.167Z,20.79
2022-07-27T12:56:08.660Z,20.43
2022-07-27T12:58:38.703Z,20.03
2022-07-27T13:01:06.717Z,20.57
2022-07-27T13:03:36.839Z,22.24
2022-07-27T13:06:06.811Z,20.24
2022-07-27T13:08:38.878Z,20.22
2022-07-27T13:11:05.681Z,20.25
2022-07-27T13:13:32.769Z,20.70
2022-07-27T13:15:59.687Z,20.10
2022-07-27T13:18:27.199Z,19.89
2022-07-27T13:20:54.649Z,20.72
2022-07-27T13:23:22.791Z,20.91
2022-07-27T13:25:50.084Z,23.12
2022-07-27T13:28:17.008Z,21.73
2022-07-27T13:30:44.142Z,21.52
2022-07-27T13:33:11.203Z,21.03
2022-07-27T13:35:38.331Z,20.53
2022-07-27T13:38:05.742Z,22.82
2022-07-27T13:40:34.594Z,21.14
2022-07-27T13:43:02.261Z,21.42
2022-07-27T13:45:29.734Z,20.73
2022-07-27T13:48:12.850Z,21.75
2022-07-27T13:50:41.697Z,21.08
2022-07-27T13:53:09.197Z,21.79
2022-07-27T13:55:36.325Z,21.93
2022-07-27T13:58:03.453Z,21.60
2022-07-27T14:00:30.556Z,20.70
2022-07-27T14:02:57.847Z,22.15
2022-07-27T14:05:25.607Z,21.10
2022-07-27T14:07:55.031Z,20.93
2022-07-27T14:10:40.221Z,21.99
2022-07-27T14:13:13.959Z,20.32
2022-07-27T14:15:53.102Z,22.20
2022-07-27T14:18:27.877Z,21.56
2022-07-27T14:20:59.198Z,20.41
2022-07-27T14:23:26.555Z,21.96
2022-07-27T14:25:53.729Z,21.15
2022-07-27T14:28:21.600Z,22.19
2022-07-27T14:30:48.591Z,21.43
2022-07-27T14:33:15.940Z,21.12
2022-07-27T14:35:42.597Z,21.33
2022-07-27T14:38:10.477Z,21.90
2022-07-27T14:40:38.122Z,20.19
2022-07-27T14:43:05.125Z,20.52
2022-07-27T14:45:44.641Z,20.60
2022-07-27T14:48:17.211Z,20.43
2022-07-27T14:50:47.879Z,19.69
2022-07-27T14:53:14.491Z,20.16
2022-07-27T14:55:42.446Z,19.84
2022-07-27T14:58:10.866Z,19.43
2022-07-27T15:00:38.953Z,19.97
2022-07-27T15:03:06.125Z,19.85
2022-07-27T15:05:33.369Z,19.39
2022-07-27T15:08:16.309Z,19.85
2022-07-27T15:10:44.049Z,20.28
2022-07-27T15:13:10.541Z,19.59
2022-07-27T15:15:37.037Z,20.43
2022-07-27T15:18:04.377Z,19.53
2022-07-27T15:20:30.865Z,19.68
2022-07-27T15:22:57.362Z,19.55
2022-07-27T15:25:23.867Z,19.67
2022-07-27T15:27:50.370Z,19.76
2022-07-27T15:30:16.906Z,19.98
2022-07-27T15:32:43.417Z,19.46
2022-07-27T15:35:10.954Z,19.92
2022-07-27T15:37:37.690Z,20.28
2022-07-27T15:40:24.801Z,19.69
2022-07-27T15:42:51.301Z,19.53
2022-07-27T15:45:17.835Z,19.53
2022-07-27T15:47:44.395Z,19.54
2022-07-27T15:50:10.909Z,19.37
2022-07-27T15:52:37.527Z,19.07
2022-07-27T15:55:04.326Z,19.78
2022-07-27T15:57:30.893Z,19.13
2022-07-27T15:59:57.409Z,19.32
2022-07-27T16:02:26.509Z,19.49
2022-07-27T16:04:54.456Z,20.23
2022-07-27T16:07:21.286Z,20.12
2022-07-27T16:09:47.917Z,19.41
2022-07-27T16:12:16.397Z,20.19
2022-07-27T16:14:44.169Z,19.98
2022-07-27T16:17:10.656Z,19.23
2022-07-27T16:19:37.389Z,18.98
2022-07-27T16:22:04.038Z,18.92
2022-07-27T16:24:33.999Z,19.12
2022-07-27T16:27:03.682Z,19.65
2022-07-27T16:29:30.481Z,19.77
2022-07-27T16:32:00.355Z,18.80
2022-07-27T16:34:28.182Z,19.05
2022-07-27T16:36:55.300Z,19.86
2022-07-27T16:39:22.025Z,19.74
2022-07-27T16:41:50.360Z,20.00
2022-07-27T16:44:18.376Z,19.48
2022-07-27T16:46:46.786Z,18.73
2022-07-27T16:49:14.957Z,18.64
2022-07-27T16:51:41.793Z,18.86
2022-07-27T16:54:08.843Z,19.37
2022-07-27T16:56:35.431Z,19.44
2022-07-27T16:59:01.954Z,19.16
2022-07-27T17:01:29.085Z,18.96
2022-07-27T17:03:56.817Z,19.38
2022-07-27T17:06:24.002Z,18.86
2022-07-27T17:08:50.533Z,19.03
2022-07-27T17:11:21.500Z,18.99
2022-07-27T17:13:48.867Z,19.24
2022-07-27T17:16:15.905Z,19.39
2022-07-27T17:18:42.466Z,19.29
2022-07-27T17:21:14.970Z,18.46
2022-07-27T17:23:42.491Z,18.38
2022-07-27T17:26:11.749Z,18.66
2022-07-27T17:28:42.248Z,18.70
2022-07-27T17:31:11.023Z,19.28
2022-07-27T17:33:38.495Z,19.58
2022-07-27T17:36:08.372Z,18.97
2022-07-27T17:38:38.837Z,18.55
2022-07-27T17:41:05.324Z,18.88
2022-07-27T17:43:34.863Z,19.08
2022-07-27T17:46:01.362Z,19.46
2022-07-27T17:48:27.932Z,19.29
2022-07-27T17:50:54.407Z,19.02
2022-07-27T17:53:20.929Z,18.98
2022-07-27T17:55:47.482Z,18.75
2022-07-27T17:58:14.400Z,19.07
2022-07-27T18:00:41.374Z,18.97
2022-07-27T18:03:09.505Z,18.90
2022-07-27T18:05:36.966Z,18.59
2022-07-27T18:08:03.588Z,18.68
2022-07-27T18:10:31.578Z,18.58
2022-07-27T18:12:59.661Z,18.07
2022-07-27T18:15:44.757Z,18.43
2022-07-27T18:18:11.263Z,18.40
2022-07-27T18:20:39.598Z,18.41
2022-07-27T18:23:06.750Z,18.17
2022-07-27T18:25:33.334Z,18.06
2022-07-27T18:27:59.989Z,17.92
2022-07-27T18:30:26.620Z,17.76
2022-07-27T18:32:53.217Z,17.85
2022-07-27T18:35:20.282Z,18.00
2022-07-27T18:37:46.758Z,18.23
2022-07-27T18:40:14.551Z,17.56
2022-07-27T18:42:41.249Z,18.08
2022-07-27T18:45:09.970Z,17.78
2022-07-27T18:47:37.282Z,17.65
2022-07-27T18:50:05.198Z,17.78
2022-07-27T18:52:31.694Z,17.62
2022-07-27T18:54:58.213Z,17.71
2022-07-27T18:57:24.676Z,18.11
2022-07-27T18:59:53.395Z,18.28
2022-07-27T19:02:20.838Z,18.07
2022-07-27T19:04:47.489Z,17.87
2022-07-27T19:07:15.737Z,17.62
2022-07-27T19:09:42.623Z,17.58
2022-07-27T19:12:09.874Z,17.80
2022-07-27T19:14:37.213Z,18.11
2022-07-27T19:17:04.092Z,17.75
2022-07-27T19:19:31.129Z,18.17
2022-07-27T19:21:57.883Z,17.51
2022-07-27T19:24:24.414Z,17.74
2022-07-27T19:26:52.086Z,17.97
2022-07-27T19:29:19.879Z,17.79
2022-07-27T19:31:46.950Z,17.56
2022-07-27T19:34:13.445Z,17.45
2022-07-27T19:36:40.206Z,17.33
2022-07-27T19:39:08.188Z,17.51
2022-07-27T19:41:35.518Z,17.57
2022-07-27T19:44:02.514Z,17.72
2022-07-27T19:46:29.107Z,17.75
2022-07-27T19:48:55.846Z,17.87
2022-07-27T19:51:22.610Z,17.93
2022-07-27T19:53:49.287Z,17.56
2022-07-27T19:56:16.778Z,17.77
2022-07-27T19:58:43.293Z,17.92
2022-07-27T20:01:10.386Z,17.28
2022-07-27T20:03:53.753Z,17.50
2022-07-27T20:06:23.016Z,16.84
2022-07-27T20:08:49.738Z,17.21
2022-07-27T20:11:16.350Z,17.39
2022-07-27T20:13:42.854Z,17.32
2022-07-27T20:16:09.404Z,17.63
2022-07-27T20:18:37.568Z,17.44
2022-07-27T20:21:04.377Z,17.90
2022-07-27T20:23:44.178Z,17.08
2022-07-27T20:26:12.340Z,16.90
2022-07-27T20:28:39.641Z,17.45
2022-07-27T20:31:06.431Z,17.61
2022-07-27T20:33:33.080Z,17.83
2022-07-27T20:35:59.682Z,17.68
2022-07-27T20:38:26.295Z,18.08
2022-07-27T20:40:52.848Z,17.72
2022-07-27T20:43:19.347Z,17.86
2022-07-27T20:45:46.085Z,17.96
2022-07-27T20:48:12.621Z,17.96
2022-07-27T20:50:39.380Z,17.49
2022-07-27T20:53:06.084Z,17.46
2022-07-27T20:55:32.817Z,17.79
2022-07-27T20:57:59.510Z,17.89
2022-07-27T21:00:29.203Z,18.42
2022-07-27T21:02:56.531Z,18.09
2022-07-27T21:05:26.915Z,17.54
2022-07-27T21:07:54.415Z,16.93
2022-07-27T21:10:22.087Z,16.83
2022-07-27T21:12:49.075Z,17.78
2022-07-27T21:15:15.549Z,17.22
2022-07-27T21:17:42.219Z,17.23
2022-07-27T21:20:09.371Z,17.45
2022-07-27T21:22:36.027Z,17.36
2022-07-27T21:25:03.172Z,17.01
2022-07-27T21:27:29.668Z,17.00
2022-07-27T21:29:59.150Z,16.87
2022-07-27T21:32:25.745Z,16.86
2022-07-27T21:34:52.223Z,16.33
2022-07-27T21:37:18.947Z,16.39
2022-07-27T21:39:45.825Z,16.70
2022-07-27T21:42:12.490Z,16.61
2022-07-27T21:44:39.534Z,16.73
2022-07-27T21:47:10.103Z,16.31
2022-07-27T21:49:39.927Z,16.21
2022-07-27T21:52:07.494Z,16.35
2022-07-27T21:54:34.022Z,16.28
2022-07-27T21:57:00.715Z,16.66
2022-07-27T21:59:27.173Z,16.60
2022-07-27T22:01:53.656Z,16.63
2022-07-27T22:04:21.311Z,16.45
2022-07-27T22:06:47.895Z,16.43
2022-07-27T22:09:14.437Z,16.75
2022-07-27T22:11:41.227Z,16.42
2022-07-27T22:14:07.764Z,16.39
2022-07-27T22:16:34.485Z,16.10
2022-07-27T22:19:00.995Z,16.45
2022-07-27T22:21:28.896Z,16.43
2022-07-27T22:23:55.400Z,17.16
2022-07-27T22:26:22.090Z,16.95
2022-07-27T22:28:48.705Z,16.77
2022-07-27T22:31:23.073Z,16.92
2022-07-27T22:33:50.195Z,16.48
2022-07-27T22:36:16.682Z,16.39
2022-07-27T22:38:43.147Z,16.12
2022-07-27T22:41:09.875Z,16.52
2022-07-27T22:43:36.431Z,16.23
2022-07-27T22:46:04.094Z,16.54
2022-07-27T22:48:30.733Z,16.11
2022-07-27T22:50:57.422Z,16.26
2022-07-27T22:53:24.064Z,16.18
2022-07-27T22:55:50.572Z,16.59
2022-07-27T22:58:17.214Z,16.48
2022-07-27T23:00:44.370Z,16.29
2022-07-27T23:03:10.985Z,15.92
2022-07-27T23:05:37.523Z,15.77
2022-07-27T23:08:04.265Z,16.33
2022-07-27T23:10:45.897Z,16.11
2022-07-27T23:13:16.925Z,16.59
2022-07-27T23:15:44.531Z,16.34
2022-07-27T23:18:11.649Z,16.33
2022-07-27T23:20:38.383Z,16.52
2022-07-27T23:23:15.676Z,16.51
2022-07-27T23:25:47.052Z,16.48
2022-07-27T23:28:13.930Z,16.48
2022-07-27T23:30:40.668Z,16.32
2022-07-27T23:33:07.505Z,16.16
2022-07-27T23:35:34.017Z,16.20
2022-07-27T23:38:00.554Z,15.99
2022-07-27T23:40:27.774Z,15.81
2022-07-27T23:42:55.385Z,15.83
2022-07-27T23:45:21.899Z,16.23
2022-07-27T23:47:48.416Z,15.99
2022-07-27T23:50:15.025Z,15.96
2022-07-27T23:52:41.575Z,15.80
2022-07-27T23:55:08.267Z,15.46
2022-07-27T23:57:34.934Z,15.54
